Time,TemperatureF,DewpointF,PressureIn,WindDirection,WindDirectionDegrees,WindSpeedMPH,WindSpeedGustMPH,Humidity,HourlyPrecipIn,Conditions,Clouds,dailyrainin,SoftwareType,DateUTC
2013-01-03 00:02:00,30.0,20.0,30.19,SSW,210,5.0,10.0,65,-99.99,,,-99.99,,2013-01-03 06:02:00,
2013-01-03 00:12:00,29.0,19.0,30.19,SW,230,6.0,11.0,65,-99.99,,,-99.99,,2013-01-03 06:12:00,
2013-01-03 00:22:00,29.0,19.0,30.19,SW,230,6.0,11.0,65,-99.99,,,-99.99,,2013-01-03 06:22:00,
2013-01-03 00:32:00,29.0,20.0,30.19,West,270,9.0,13.0,68,-99.99,,,-99.99,,2013-01-03 06:32:00,
2013-01-03 00:42:00,29.0,20.0,30.18,West,265,9.0,14.0,69,-99.99,,,-99.99,,2013-01-03 06:42:00,
2013-01-03 00:52:00,29.0,20.0,30.18,West,265,9.0,14.0,69,-99.99,,,-99.99,,2013-01-03 06:52:00,
2013-01-03 01:02:00,27.0,20.0,30.18,WNW,285,7.0,12.0,72,-99.99,,,-99.99,,2013-01-03 07:02:00,
2013-01-03 01:12:00,27.0,20.0,30.18,WNW,285,9.0,12.0,73,-99.99,,,-99.99,,2013-01-03 07:12:00,
2013-01-03 01:22:00,27.0,20.0,30.18,WNW,285,9.0,12.0,73,-99.99,,,-99.99,,2013-01-03 07:22:00,
2013-01-03 01:33:00,27.0,19.0,30.18,WNW,285,7.0,10.0,74,-99.99,,,-99.99,,2013-01-03 07:33:00,
2013-01-03 01:42:00,26.0,19.0,30.18,WNW,285,6.0,9.0,75,-99.99,,,-99.99,,2013-01-03 07:42:00,
2013-01-03 01:52:00,26.0,19.0,30.18,WNW,285,6.0,9.0,75,-99.99,,,-99.99,,2013-01-03 07:52:00,
2013-01-03 02:02:00,25.0,19.0,30.18,WNW,285,5.0,9.0,76,-99.99,,,-99.99,,2013-01-03 08:02:00,
2013-01-03 02:12:00,25.0,19.0,30.18,WNW,290,5.0,7.0,78,-99.99,,,-99.99,,2013-01-03 08:12:00,
2013-01-03 02:22:00,25.0,19.0,30.18,WNW,290,5.0,7.0,78,-99.99,,,-99.99,,2013-01-03 08:22:00,
2013-01-03 02:32:00,25.0,19.0,30.18,NW,305,5.0,6.0,78,-99.99,,,-99.99,,2013-01-03 08:32:00,
2013-01-03 02:42:00,25.0,19.0,30.18,NW,305,5.0,7.0,79,-99.99,,,-99.99,,2013-01-03 08:42:00,
2013-01-03 02:53:00,25.0,19.0,30.18,NW,305,5.0,7.0,79,-99.99,,,-99.99,,2013-01-03 08:53:00,
2013-01-03 03:02:00,24.0,19.0,30.19,NW,310,4.0,6.0,80,-99.99,,,-99.99,,2013-01-03 09:02:00,
2013-01-03 03:12:00,24.0,18.0,30.19,NW,315,4.0,6.0,80,-99.99,,,-99.99,,2013-01-03 09:12:00,
2013-01-03 03:22:00,24.0,18.0,30.19,NW,315,4.0,6.0,80,-99.99,,,-99.99,,2013-01-03 09:22:00,
2013-01-03 03:33:00,24.0,19.0,30.19,WNW,295,3.0,4.0,81,-99.99,,,-99.99,,2013-01-03 09:33:00,
2013-01-03 03:43:00,24.0,19.0,30.20,WNW,285,3.0,5.0,81,-99.99,,,-99.99,,2013-01-03 09:43:00,
2013-01-03 03:52:00,24.0,19.0,30.20,WNW,285,3.0,5.0,81,-99.99,,,-99.99,,2013-01-03 09:52:00,
2013-01-03 04:02:00,23.0,19.0,30.21,WNW,295,2.0,5.0,82,-99.99,,,-99.99,,2013-01-03 10:02:00,
2013-01-03 04:12:00,23.0,18.0,30.21,West,280,4.0,5.0,82,-99.99,,,-99.99,,2013-01-03 10:12:00,
2013-01-03 04:22:00,23.0,18.0,30.21,West,280,4.0,5.0,82,-99.99,,,-99.99,,2013-01-03 10:22:00,
2013-01-03 04:33:00,23.0,18.0,30.21,WNW,285,4.0,5.0,82,-99.99,,,-99.99,,2013-01-03 10:33:00,
2013-01-03 04:42:00,23.0,19.0,30.22,WNW,290,4.0,6.0,83,-99.99,,,-99.99,,2013-01-03 10:42:00,
2013-01-03 04:52:00,23.0,19.0,30.22,WNW,290,4.0,6.0,83,-99.99,,,-99.99,,2013-01-03 10:52:00,
2013-01-03 05:02:00,22.0,18.0,30.22,West,280,2.0,4.0,83,-99.99,,,-99.99,,2013-01-03 11:02:00,
2013-01-03 05:12:00,21.0,16.0,30.22,WNW,300,2.0,3.0,81,-99.99,,,-99.99,,2013-01-03 11:12:00,
2013-01-03 05:22:00,21.0,16.0,30.22,WNW,300,2.0,3.0,81,-99.99,,,-99.99,,2013-01-03 11:22:00,
2013-01-03 05:33:00,23.0,19.0,30.23,West,270,2.0,4.0,84,-99.99,,,-99.99,,2013-01-03 11:33:00,
2013-01-03 05:43:00,24.0,19.0,30.23,West,275,3.0,5.0,84,-99.99,,,-99.99,,2013-01-03 11:43:00,
2013-01-03 05:53:00,24.0,19.0,30.23,West,275,3.0,5.0,84,-99.99,,,-99.99,,2013-01-03 11:53:00,
2013-01-03 06:03:00,24.0,20.0,30.25,West,265,3.0,7.0,82,-99.99,,,-99.99,,2013-01-03 12:03:00,
2013-01-03 06:12:00,25.0,20.0,30.25,West,270,5.0,7.0,82,-99.99,,,-99.99,,2013-01-03 12:12:00,
2013-01-03 06:22:00,25.0,20.0,30.25,West,270,5.0,7.0,82,-99.99,,,-99.99,,2013-01-03 12:22:00,
2013-01-03 06:33:00,25.0,20.0,30.26,SW,235,1.0,6.0,80,-99.99,,,-99.99,,2013-01-03 12:33:00,
2013-01-03 06:42:00,26.0,20.0,30.26,West,275,1.0,3.0,80,-99.99,,,-99.99,,2013-01-03 12:42:00,
2013-01-03 06:52:00,26.0,20.0,30.26,West,275,1.0,3.0,80,-99.99,,,-99.99,,2013-01-03 12:52:00,
2013-01-03 07:02:00,25.0,20.0,30.26,WSW,255,1.0,4.0,80,-99.99,,,-99.99,,2013-01-03 13:02:00,
2013-01-03 07:13:00,25.0,20.0,30.26,WSW,255,2.0,3.0,80,-99.99,,,-99.99,,2013-01-03 13:13:00,
2013-01-03 07:22:00,25.0,20.0,30.26,WSW,255,2.0,3.0,80,-99.99,,,-99.99,,2013-01-03 13:22:00,
2013-01-03 07:33:00,24.0,19.0,30.27,WSW,250,2.0,3.0,80,-99.99,,,-99.99,,2013-01-03 13:33:00,
2013-01-03 07:42:00,24.0,19.0,30.27,West,275,2.0,3.0,81,-99.99,,,-99.99,,2013-01-03 13:42:00,
2013-01-03 07:52:00,24.0,19.0,30.27,West,275,2.0,3.0,81,-99.99,,,-99.99,,2013-01-03 13:52:00,
2013-01-03 08:03:00,24.0,19.0,30.28,WSW,250,1.0,3.0,81,-99.99,,,-99.99,,2013-01-03 14:03:00,
2013-01-03 08:12:00,24.0,19.0,30.29,West,275,1.0,3.0,81,-99.99,,,-99.99,,2013-01-03 14:12:00,
2013-01-03 08:23:00,24.0,19.0,30.29,West,275,1.0,3.0,81,-99.99,,,-99.99,,2013-01-03 14:23:00,
2013-01-03 08:33:00,24.0,19.0,30.29,West,275,2.0,4.0,81,-99.99,,,-99.99,,2013-01-03 14:33:00,
2013-01-03 08:42:00,24.0,19.0,30.29,WNW,285,2.0,5.0,81,-99.99,,,-99.99,,2013-01-03 14:42:00,
2013-01-03 08:53:00,24.0,19.0,30.29,WNW,285,2.0,5.0,81,-99.99,,,-99.99,,2013-01-03 14:53:00,
2013-01-03 09:03:00,24.0,19.0,30.30,WNW,295,4.0,6.0,81,-99.99,,,-99.99,,2013-01-03 15:03:00,
2013-01-03 09:12:00,25.0,20.0,30.30,West,275,3.0,7.0,81,-99.99,,,-99.99,,2013-01-03 15:12:00,
2013-01-03 09:22:00,25.0,20.0,30.30,West,275,3.0,7.0,81,-99.99,,,-99.99,,2013-01-03 15:22:00,
2013-01-03 09:33:00,26.0,21.0,30.31,West,270,6.0,9.0,81,-99.99,,,-99.99,,2013-01-03 15:33:00,
2013-01-03 09:43:00,26.0,21.0,30.31,WNW,295,5.0,8.0,79,-99.99,,,-99.99,,2013-01-03 15:43:00,
2013-01-03 09:53:00,26.0,21.0,30.31,WNW,295,5.0,8.0,79,-99.99,,,-99.99,,2013-01-03 15:53:00,
2013-01-03 10:03:00,27.0,22.0,30.32,WNW,285,4.0,9.0,80,-99.99,,,-99.99,,2013-01-03 16:03:00,
2013-01-03 10:12:00,27.0,22.0,30.33,NW,305,5.0,10.0,79,-99.99,,,-99.99,,2013-01-03 16:12:00,
2013-01-03 10:22:00,27.0,22.0,30.33,NW,305,5.0,10.0,79,-99.99,,,-99.99,,2013-01-03 16:22:00,
2013-01-03 10:33:00,29.0,22.0,30.33,NW,310,3.0,6.0,77,-99.99,,,-99.99,,2013-01-03 16:33:00,
2013-01-03 10:43:00,30.0,24.0,30.34,NW,305,2.0,5.0,76,-99.99,,,-99.99,,2013-01-03 16:43:00,
2013-01-03 10:52:00,30.0,24.0,30.34,NW,305,2.0,5.0,76,-99.99,,,-99.99,,2013-01-03 16:52:00,
2013-01-03 11:03:00,30.0,23.0,30.34,NW,320,5.0,7.0,73,-99.99,,,-99.99,,2013-01-03 17:03:00,
2013-01-03 11:12:00,31.0,23.0,30.35,WNW,290,3.0,6.0,72,-99.99,,,-99.99,,2013-01-03 17:12:00,
2013-01-03 11:23:00,31.0,23.0,30.35,WNW,290,3.0,6.0,72,-99.99,,,-99.99,,2013-01-03 17:23:00,
2013-01-03 11:33:00,33.0,23.0,30.35,West,275,2.0,5.0,67,-99.99,,,-99.99,,2013-01-03 17:33:00,
2013-01-03 11:43:00,33.0,23.0,30.35,NW,305,6.0,8.0,65,-99.99,,,-99.99,,2013-01-03 17:43:00,
2013-01-03 11:53:00,33.0,23.0,30.35,NW,305,6.0,8.0,65,-99.99,,,-99.99,,2013-01-03 17:53:00,
2013-01-03 12:03:00,36.0,24.0,30.35,WNW,300,3.0,7.0,62,-99.99,,,-99.99,,2013-01-03 18:03:00,
2013-01-03 12:13:00,36.0,24.0,30.34,West,280,5.0,11.0,61,-99.99,,,-99.99,,2013-01-03 18:13:00,
2013-01-03 12:22:00,36.0,24.0,30.34,West,280,5.0,11.0,61,-99.99,,,-99.99,,2013-01-03 18:22:00,
2013-01-03 12:33:00,36.0,23.0,30.34,WNW,300,6.0,12.0,57,-99.99,,,-99.99,,2013-01-03 18:33:00,
2013-01-03 12:42:00,37.0,23.0,30.34,West,275,8.0,11.0,55,-99.99,,,-99.99,,2013-01-03 18:42:00,
2013-01-03 12:53:00,37.0,23.0,30.34,West,275,8.0,11.0,55,-99.99,,,-99.99,,2013-01-03 18:53:00,
2013-01-03 13:03:00,37.0,20.0,30.33,NW,320,8.0,11.0,50,-99.99,,,-99.99,,2013-01-03 19:03:00,
2013-01-03 13:12:00,37.0,21.0,30.33,NW,305,9.0,14.0,51,-99.99,,,-99.99,,2013-01-03 19:12:00,
2013-01-03 13:56:00,38.0,20.0,30.32,WNW,300,9.0,12.0,48,-99.99,,,-99.99,,2013-01-03 19:56:00,
2013-01-03 14:03:00,39.0,21.0,30.31,NW,320,9.0,13.0,49,-99.99,,,-99.99,,2013-01-03 20:03:00,
2013-01-03 14:12:00,39.0,21.0,30.31,NW,315,8.0,13.0,48,-99.99,,,-99.99,,2013-01-03 20:12:00,
2013-01-03 14:22:00,39.0,21.0,30.31,NW,315,8.0,13.0,48,-99.99,,,-99.99,,2013-01-03 20:22:00,
2013-01-03 14:33:00,38.0,20.0,30.30,NNW,335,8.0,14.0,48,-99.99,,,-99.99,,2013-01-03 20:33:00,
2013-01-03 14:42:00,38.0,21.0,30.30,NNW,340,5.0,11.0,48,-99.99,,,-99.99,,2013-01-03 20:42:00,
2013-01-03 14:53:00,38.0,21.0,30.30,NNW,340,5.0,11.0,48,-99.99,,,-99.99,,2013-01-03 20:53:00,
2013-01-03 15:02:00,39.0,20.0,30.30,West,280,2.0,16.0,47,-99.99,,,-99.99,,2013-01-03 21:02:00,
2013-01-03 15:12:00,39.0,21.0,30.31,WNW,290,5.0,11.0,47,-99.99,,,-99.99,,2013-01-03 21:12:00,
2013-01-03 15:22:00,39.0,21.0,30.31,WNW,290,5.0,11.0,47,-99.99,,,-99.99,,2013-01-03 21:22:00,
2013-01-03 15:36:00,38.0,20.0,30.31,NW,320,7.0,12.0,48,-99.99,,,-99.99,,2013-01-03 21:36:00,
2013-01-03 15:48:00,38.0,21.0,30.31,NW,325,7.0,11.0,49,-99.99,,,-99.99,,2013-01-03 21:48:00,
2013-01-03 16:03:00,39.0,20.0,30.31,NW,310,7.0,10.0,47,-99.99,,,-99.99,,2013-01-03 22:03:00,
2013-01-03 16:12:00,39.0,21.0,30.30,West,280,7.0,11.0,48,-99.99,,,-99.99,,2013-01-03 22:12:00,
2013-01-03 16:22:00,39.0,21.0,30.30,West,280,7.0,11.0,48,-99.99,,,-99.99,,2013-01-03 22:22:00,
2013-01-03 16:33:00,39.0,21.0,30.30,NNW,340,9.0,12.0,49,-99.99,,,-99.99,,2013-01-03 22:33:00,
2013-01-03 16:42:00,39.0,22.0,30.31,West,280,5.0,13.0,51,-99.99,,,-99.99,,2013-01-03 22:42:00,
2013-01-03 16:52:00,39.0,22.0,30.31,West,280,5.0,13.0,51,-99.99,,,-99.99,,2013-01-03 22:52:00,
2013-01-03 17:03:00,37.0,21.0,30.31,NW,325,6.0,13.0,52,-99.99,,,-99.99,,2013-01-03 23:03:00,
2013-01-03 17:12:00,37.0,22.0,30.32,NW,310,5.0,7.0,53,-99.99,,,-99.99,,2013-01-03 23:12:00,
2013-01-03 17:22:00,37.0,22.0,30.32,NW,310,5.0,7.0,53,-99.99,,,-99.99,,2013-01-03 23:22:00,
2013-01-03 17:33:00,37.0,22.0,30.32,NW,310,4.0,6.0,53,-99.99,,,-99.99,,2013-01-03 23:33:00,
2013-01-03 17:43:00,37.0,22.0,30.32,NW,320,5.0,7.0,54,-99.99,,,-99.99,,2013-01-03 23:43:00,
2013-01-03 17:52:00,37.0,22.0,30.32,NW,320,5.0,7.0,54,-99.99,,,-99.99,,2013-01-03 23:52:00,
2013-01-03 18:03:00,36.0,21.0,30.32,NW,315,3.0,5.0,54,-99.99,,,-99.99,,2013-01-04 00:03:00,
2013-01-03 18:12:00,36.0,22.0,30.33,WNW,285,2.0,3.0,55,-99.99,,,-99.99,,2013-01-04 00:12:00,
2013-01-03 18:22:00,36.0,22.0,30.33,WNW,285,2.0,3.0,55,-99.99,,,-99.99,,2013-01-04 00:22:00,
2013-01-03 18:32:00,35.0,21.0,30.33,West,275,5.0,6.0,57,-99.99,,,-99.99,,2013-01-04 00:32:00,
2013-01-03 18:42:00,35.0,21.0,30.33,WNW,300,2.0,6.0,56,-99.99,,,-99.99,,2013-01-04 00:42:00,
2013-01-03 18:52:00,35.0,21.0,30.33,WNW,300,2.0,6.0,56,-99.99,,,-99.99,,2013-01-04 00:52:00,
2013-01-03 19:02:00,35.0,22.0,30.34,WSW,255,2.0,4.0,59,-99.99,,,-99.99,,2013-01-04 01:02:00,
2013-01-03 19:12:00,34.0,21.0,30.34,South,185,1.0,3.0,59,-99.99,,,-99.99,,2013-01-04 01:12:00,
2013-01-03 19:22:00,34.0,21.0,30.34,South,185,1.0,3.0,59,-99.99,,,-99.99,,2013-01-04 01:22:00,
2013-01-03 19:32:00,34.0,21.0,30.34,SW,225,1.0,3.0,59,-99.99,,,-99.99,,2013-01-04 01:32:00,
2013-01-03 19:42:00,34.0,22.0,30.34,SW,215,1.0,3.0,60,-99.99,,,-99.99,,2013-01-04 01:42:00,
2013-01-03 19:52:00,34.0,22.0,30.34,SW,215,1.0,3.0,60,-99.99,,,-99.99,,2013-01-04 01:52:00,
2013-01-03 20:02:00,33.0,22.0,30.33,WSW,250,1.0,2.0,64,-99.99,,,-99.99,,2013-01-04 02:02:00,
2013-01-03 20:12:00,33.0,22.0,30.33,West,280,2.0,3.0,63,-99.99,,,-99.99,,2013-01-04 02:12:00,
2013-01-03 20:22:00,33.0,22.0,30.33,West,280,2.0,3.0,63,-99.99,,,-99.99,,2013-01-04 02:22:00,
2013-01-03 20:32:00,32.0,21.0,30.33,West,280,2.0,3.0,64,-99.99,,,-99.99,,2013-01-04 02:32:00,
2013-01-03 20:42:00,31.0,21.0,30.33,West,260,1.0,3.0,65,-99.99,,,-99.99,,2013-01-04 02:42:00,
2013-01-03 20:52:00,31.0,21.0,30.33,West,260,1.0,3.0,65,-99.99,,,-99.99,,2013-01-04 02:52:00,
2013-01-03 21:02:00,31.0,21.0,30.34,South,185,0.0,2.0,66,-99.99,,,-99.99,,2013-01-04 03:02:00,
2013-01-03 21:12:00,33.0,22.0,30.34,West,260,2.0,4.0,64,-99.99,,,-99.99,,2013-01-04 03:12:00,
2013-01-03 21:22:00,33.0,22.0,30.34,West,260,2.0,4.0,64,-99.99,,,-99.99,,2013-01-04 03:22:00,
2013-01-03 21:32:00,33.0,22.0,30.34,West,275,5.0,7.0,63,-99.99,,,-99.99,,2013-01-04 03:32:00,
2013-01-03 21:42:00,33.0,22.0,30.33,West,275,2.0,7.0,63,-99.99,,,-99.99,,2013-01-04 03:42:00,
2013-01-03 21:52:00,33.0,22.0,30.33,West,275,2.0,7.0,63,-99.99,,,-99.99,,2013-01-04 03:52:00,
2013-01-03 22:02:00,33.0,22.0,30.33,West,270,3.0,4.0,64,-99.99,,,-99.99,,2013-01-04 04:02:00,
2013-01-03 22:12:00,33.0,22.0,30.34,West,275,3.0,6.0,65,-99.99,,,-99.99,,2013-01-04 04:12:00,
2013-01-03 22:22:00,33.0,22.0,30.34,West,275,3.0,6.0,65,-99.99,,,-99.99,,2013-01-04 04:22:00,
2013-01-03 22:32:00,32.0,22.0,30.34,West,275,5.0,6.0,66,-99.99,,,-99.99,,2013-01-04 04:32:00,
2013-01-03 22:42:00,32.0,22.0,30.34,WNW,290,2.0,6.0,66,-99.99,,,-99.99,,2013-01-04 04:42:00,
2013-01-03 22:52:00,32.0,22.0,30.35,West,280,3.0,5.0,67,-99.99,,,-99.99,,2013-01-04 04:52:00,
2013-01-03 23:03:00,32.0,22.0,30.35,West,280,3.0,5.0,67,-99.99,,,-99.99,,2013-01-04 05:03:00,
2013-01-03 23:12:00,31.0,22.0,30.35,NW,305,5.0,8.0,68,-99.99,,,-99.99,,2013-01-04 05:12:00,
2013-01-03 23:22:00,31.0,22.0,30.35,NW,305,5.0,8.0,68,-99.99,,,-99.99,,2013-01-04 05:22:00,
2013-01-03 23:33:00,32.0,23.0,30.34,WNW,295,4.0,6.0,70,-99.99,,,-99.99,,2013-01-04 05:33:00,
2013-01-03 23:42:00,31.0,23.0,30.34,WNW,290,2.0,5.0,70,-99.99,,,-99.99,,2013-01-04 05:42:00,
2013-01-03 23:52:00,31.0,23.0,30.34,WNW,290,2.0,5.0,70,-99.99,,,-99.99,,2013-01-04 05:52:00,